sensor_id;sensor_type;location;lat;lon;timestamp;temperature;humidity
72128;DHT22;60000;51.030;7.024;2023-07-16T00:01:48;20.37;71.40
72128;DHT22;60000;51.030;7.024;2023-07-16T00:04:13;20.39;71.43
72128;DHT22;60000;51.030;7.024;2023-07-16T00:06:38;20.42;71.40
72128;DHT22;60000;51.030;7.024;2023-07-16T00:09:04;20.43;71.39
72128;DHT22;60000;51.030;7.024;2023-07-16T00:11:29;20.43;71.32
72128;DHT22;60000;51.030;7.024;2023-07-16T00:13:55;20.42;71.28
72128;DHT22;60000;51.030;7.024;2023-07-16T00:16:21;20.45;71.20
72128;DHT22;60000;51.030;7.024;2023-07-16T00:18:46;20.49;70.82
72128;DHT22;60000;51.030;7.024;2023-07-16T00:21:12;20.47;70.73
72128;DHT22;60000;51.030;7.024;2023-07-16T00:23:37;20.47;70.52
72128;DHT22;60000;51.030;7.024;2023-07-16T00:26:03;20.47;70.38
72128;DHT22;60000;51.030;7.024;2023-07-16T00:28:29;20.42;70.36
72128;DHT22;60000;51.030;7.024;2023-07-16T00:30:54;20.39;70.37
72128;DHT22;60000;51.030;7.024;2023-07-16T00:33:20;20.39;70.26
72128;DHT22;60000;51.030;7.024;2023-07-16T00:35:48;20.36;70.07
72128;DHT22;60000;51.030;7.024;2023-07-16T00:38:14;20.35;69.96
72128;DHT22;60000;51.030;7.024;2023-07-16T00:40:39;20.32;70.02
72128;DHT22;60000;51.030;7.024;2023-07-16T00:43:05;20.29;70.01
72128;DHT22;60000;51.030;7.024;2023-07-16T00:45:30;20.25;70.00
72128;DHT22;60000;51.030;7.024;2023-07-16T00:47:55;20.21;70.08
72128;DHT22;60000;51.030;7.024;2023-07-16T00:50:21;20.14;69.99
72128;DHT22;60000;51.030;7.024;2023-07-16T00:52:46;20.09;70.10
72128;DHT22;60000;51.030;7.024;2023-07-16T00:55:12;20.02;70.23
72128;DHT22;60000;51.030;7.024;2023-07-16T00:57:38;20.01;70.35
72128;DHT22;60000;51.030;7.024;2023-07-16T01:00:05;19.96;70.40
72128;DHT22;60000;51.030;7.024;2023-07-16T01:02:30;19.91;70.46
72128;DHT22;60000;51.030;7.024;2023-07-16T01:04:56;19.84;70.78
72128;DHT22;60000;51.030;7.024;2023-07-16T01:07:24;19.78;71.12
72128;DHT22;60000;51.030;7.024;2023-07-16T01:09:51;19.75;71.09
72128;DHT22;60000;51.030;7.024;2023-07-16T01:12:20;19.70;71.27
72128;DHT22;60000;51.030;7.024;2023-07-16T01:14:46;19.65;71.27
72128;DHT22;60000;51.030;7.024;2023-07-16T01:17:11;19.58;71.37
72128;DHT22;60000;51.030;7.024;2023-07-16T01:19:37;19.55;71.46
72128;DHT22;60000;51.030;7.024;2023-07-16T01:25:23;19.44;71.63
72128;DHT22;60000;51.030;7.024;2023-07-16T01:27:55;19.36;71.83
72128;DHT22;60000;51.030;7.024;2023-07-16T01:30:26;19.27;71.98
72128;DHT22;60000;51.030;7.024;2023-07-16T01:32:52;19.22;72.07
72128;DHT22;60000;51.030;7.024;2023-07-16T01:35:18;19.15;72.01
72128;DHT22;60000;51.030;7.024;2023-07-16T01:37:44;19.15;72.01
72128;DHT22;60000;51.030;7.024;2023-07-16T01:40:09;19.16;71.44
72128;DHT22;60000;51.030;7.024;2023-07-16T01:42:36;19.16;71.30
72128;DHT22;60000;51.030;7.024;2023-07-16T01:45:01;19.13;71.16
72128;DHT22;60000;51.030;7.024;2023-07-16T01:47:52;19.06;71.23
72128;DHT22;60000;51.030;7.024;2023-07-16T01:50:20;19.07;71.13
72128;DHT22;60000;51.030;7.024;2023-07-16T01:52:45;19.00;71.14
72128;DHT22;60000;51.030;7.024;2023-07-16T01:55:10;18.98;71.26
72128;DHT22;60000;51.030;7.024;2023-07-16T01:57:36;18.94;71.16
72128;DHT22;60000;51.030;7.024;2023-07-16T02:00:01;18.88;71.34
72128;DHT22;60000;51.030;7.024;2023-07-16T02:02:27;18.84;71.60
72128;DHT22;60000;51.030;7.024;2023-07-16T02:04:52;18.75;71.78
72128;DHT22;60000;51.030;7.024;2023-07-16T02:07:18;18.65;72.18
72128;DHT22;60000;51.030;7.024;2023-07-16T02:09:43;18.61;72.32
72128;DHT22;60000;51.030;7.024;2023-07-16T02:12:08;18.49;72.81
72128;DHT22;60000;51.030;7.024;2023-07-16T02:14:33;18.49;73.42
72128;DHT22;60000;51.030;7.024;2023-07-16T02:16:59;18.47;73.71
72128;DHT22;60000;51.030;7.024;2023-07-16T02:19:24;18.47;74.05
72128;DHT22;60000;51.030;7.024;2023-07-16T02:21:51;18.40;74.14
72128;DHT22;60000;51.030;7.024;2023-07-16T02:24:16;18.36;74.15
72128;DHT22;60000;51.030;7.024;2023-07-16T02:26:41;18.31;74.53
72128;DHT22;60000;51.030;7.024;2023-07-16T02:29:06;18.27;74.67
72128;DHT22;60000;51.030;7.024;2023-07-16T02:31:34;18.23;74.77
72128;DHT22;60000;51.030;7.024;2023-07-16T02:33:59;18.17;75.05
72128;DHT22;60000;51.030;7.024;2023-07-16T02:36:24;18.14;75.30
72128;DHT22;60000;51.030;7.024;2023-07-16T02:38:50;18.08;75.45
72128;DHT22;60000;51.030;7.024;2023-07-16T02:41:15;18.06;75.47
72128;DHT22;60000;51.030;7.024;2023-07-16T02:43:40;18.01;75.55
72128;DHT22;60000;51.030;7.024;2023-07-16T02:46:06;18.01;75.62
72128;DHT22;60000;51.030;7.024;2023-07-16T02:48:31;18.00;75.63
72128;DHT22;60000;51.030;7.024;2023-07-16T02:50:56;17.96;75.35
72128;DHT22;60000;51.030;7.024;2023-07-16T02:53:22;17.97;75.12
72128;DHT22;60000;51.030;7.024;2023-07-16T02:55:47;17.93;74.66
72128;DHT22;60000;51.030;7.024;2023-07-16T02:58:12;17.96;74.10
72128;DHT22;60000;51.030;7.024;2023-07-16T03:00:38;17.94;73.87
72128;DHT22;60000;51.030;7.024;2023-07-16T03:03:03;17.94;73.83
72128;DHT22;60000;51.030;7.024;2023-07-16T03:05:28;17.90;73.57
72128;DHT22;60000;51.030;7.024;2023-07-16T03:07:54;17.89;73.49
72128;DHT22;60000;51.030;7.024;2023-07-16T03:10:20;17.86;73.26
72128;DHT22;60000;51.030;7.024;2023-07-16T03:12:46;17.83;73.01
72128;DHT22;60000;51.030;7.024;2023-07-16T03:15:11;17.82;72.94
72128;DHT22;60000;51.030;7.024;2023-07-16T03:17:36;17.83;72.95
72128;DHT22;60000;51.030;7.024;2023-07-16T03:20:02;17.80;72.84
72128;DHT22;60000;51.030;7.024;2023-07-16T03:22:29;17.80;72.69
72128;DHT22;60000;51.030;7.024;2023-07-16T03:24:54;17.82;72.50
72128;DHT22;60000;51.030;7.024;2023-07-16T03:27:20;17.79;72.34
72128;DHT22;60000;51.030;7.024;2023-07-16T03:29:45;17.79;72.04
72128;DHT22;60000;51.030;7.024;2023-07-16T03:32:10;17.79;71.83
72128;DHT22;60000;51.030;7.024;2023-07-16T03:34:35;17.79;71.54
72128;DHT22;60000;51.030;7.024;2023-07-16T03:37:01;17.76;71.31
72128;DHT22;60000;51.030;7.024;2023-07-16T03:39:26;17.75;71.19
72128;DHT22;60000;51.030;7.024;2023-07-16T03:41:51;17.79;71.25
72128;DHT22;60000;51.030;7.024;2023-07-16T03:44:17;17.76;71.58
72128;DHT22;60000;51.030;7.024;2023-07-16T03:46:42;17.75;71.65
72128;DHT22;60000;51.030;7.024;2023-07-16T03:49:07;17.72;71.89
72128;DHT22;60000;51.030;7.024;2023-07-16T03:51:33;17.69;72.23
72128;DHT22;60000;51.030;7.024;2023-07-16T03:53:59;17.69;72.48
72128;DHT22;60000;51.030;7.024;2023-07-16T03:56:24;17.68;72.49
72128;DHT22;60000;51.030;7.024;2023-07-16T03:58:49;17.70;71.59
72128;DHT22;60000;51.030;7.024;2023-07-16T04:01:14;17.69;71.56
72128;DHT22;60000;51.030;7.024;2023-07-16T04:03:40;17.70;71.55
72128;DHT22;60000;51.030;7.024;2023-07-16T04:06:07;17.69;71.47
72128;DHT22;60000;51.030;7.024;2023-07-16T04:08:34;17.69;71.45
72128;DHT22;60000;51.030;7.024;2023-07-16T04:11:01;17.66;71.49
72128;DHT22;60000;51.030;7.024;2023-07-16T04:13:26;17.68;71.40
72128;DHT22;60000;51.030;7.024;2023-07-16T04:15:52;17.66;71.41
72128;DHT22;60000;51.030;7.024;2023-07-16T04:18:20;17.65;71.25
72128;DHT22;60000;51.030;7.024;2023-07-16T04:20:46;17.63;71.19
72128;DHT22;60000;51.030;7.024;2023-07-16T04:23:11;17.62;71.06
72128;DHT22;60000;51.030;7.024;2023-07-16T04:25:36;17.63;70.97
72128;DHT22;60000;51.030;7.024;2023-07-16T04:28:02;17.65;70.94
72128;DHT22;60000;51.030;7.024;2023-07-16T04:30:29;17.68;70.87
72128;DHT22;60000;51.030;7.024;2023-07-16T04:32:54;17.68;70.97
72128;DHT22;60000;51.030;7.024;2023-07-16T04:35:19;17.68;71.12
72128;DHT22;60000;51.030;7.024;2023-07-16T04:37:45;17.66;71.22
72128;DHT22;60000;51.030;7.024;2023-07-16T04:40:10;17.66;71.27
72128;DHT22;60000;51.030;7.024;2023-07-16T04:42:36;17.69;71.53
72128;DHT22;60000;51.030;7.024;2023-07-16T04:45:01;17.69;71.78
72128;DHT22;60000;51.030;7.024;2023-07-16T04:47:26;17.69;71.99
72128;DHT22;60000;51.030;7.024;2023-07-16T04:49:52;17.73;72.14
72128;DHT22;60000;51.030;7.024;2023-07-16T04:52:17;17.79;72.19
72128;DHT22;60000;51.030;7.024;2023-07-16T04:54:42;17.85;72.21
72128;DHT22;60000;51.030;7.024;2023-07-16T04:57:08;17.96;72.14
72128;DHT22;60000;51.030;7.024;2023-07-16T04:59:34;18.00;71.99
72128;DHT22;60000;51.030;7.024;2023-07-16T05:01:59;18.07;71.64
72128;DHT22;60000;51.030;7.024;2023-07-16T05:04:25;18.10;71.47
72128;DHT22;60000;51.030;7.024;2023-07-16T05:06:51;18.16;71.39
72128;DHT22;60000;51.030;7.024;2023-07-16T05:09:17;18.17;71.19
72128;DHT22;60000;51.030;7.024;2023-07-16T05:11:42;18.23;70.92
72128;DHT22;60000;51.030;7.024;2023-07-16T05:14:07;18.23;69.94
72128;DHT22;60000;51.030;7.024;2023-07-16T05:16:33;18.26;69.84
72128;DHT22;60000;51.030;7.024;2023-07-16T05:18:58;18.31;69.59
72128;DHT22;60000;51.030;7.024;2023-07-16T05:21:23;18.33;69.54
72128;DHT22;60000;51.030;7.024;2023-07-16T05:23:49;18.34;69.18
72128;DHT22;60000;51.030;7.024;2023-07-16T05:26:14;18.36;68.66
72128;DHT22;60000;51.030;7.024;2023-07-16T05:28:39;18.36;68.39
72128;DHT22;60000;51.030;7.024;2023-07-16T05:31:05;18.38;68.14
72128;DHT22;60000;51.030;7.024;2023-07-16T05:33:30;18.43;68.25
72128;DHT22;60000;51.030;7.024;2023-07-16T05:35:56;18.44;68.18
72128;DHT22;60000;51.030;7.024;2023-07-16T05:38:21;18.43;67.49
72128;DHT22;60000;51.030;7.024;2023-07-16T05:40:47;18.49;67.63
72128;DHT22;60000;51.030;7.024;2023-07-16T05:43:12;18.55;66.95
72128;DHT22;60000;51.030;7.024;2023-07-16T05:45:39;18.54;67.22
72128;DHT22;60000;51.030;7.024;2023-07-16T05:48:04;18.65;67.69
72128;DHT22;60000;51.030;7.024;2023-07-16T05:50:30;18.66;67.50
72128;DHT22;60000;51.030;7.024;2023-07-16T05:52:55;18.69;67.57
72128;DHT22;60000;51.030;7.024;2023-07-16T05:55:20;18.71;66.44
72128;DHT22;60000;51.030;7.024;2023-07-16T05:57:46;18.76;66.14
72128;DHT22;60000;51.030;7.024;2023-07-16T06:00:12;18.78;65.63
72128;DHT22;60000;51.030;7.024;2023-07-16T06:02:38;18.81;64.71
72128;DHT22;60000;51.030;7.024;2023-07-16T06:05:05;18.82;64.46
72128;DHT22;60000;51.030;7.024;2023-07-16T06:07:30;18.94;64.63
72128;DHT22;60000;51.030;7.024;2023-07-16T06:09:56;19.19;62.48
72128;DHT22;60000;51.030;7.024;2023-07-16T06:12:21;19.44;61.73
72128;DHT22;60000;51.030;7.024;2023-07-16T06:14:47;19.70;60.25
72128;DHT22;60000;51.030;7.024;2023-07-16T06:17:12;19.94;58.51
72128;DHT22;60000;51.030;7.024;2023-07-16T06:19:37;20.30;58.52
72128;DHT22;60000;51.030;7.024;2023-07-16T06:22:03;20.60;57.45
72128;DHT22;60000;51.030;7.024;2023-07-16T06:24:28;20.79;55.78
72128;DHT22;60000;51.030;7.024;2023-07-16T06:26:53;21.08;55.33
72128;DHT22;60000;51.030;7.024;2023-07-16T06:29:19;21.41;55.21
72128;DHT22;60000;51.030;7.024;2023-07-16T06:31:54;21.80;54.37
72128;DHT22;60000;51.030;7.024;2023-07-16T06:34:20;22.01;52.79
72128;DHT22;60000;51.030;7.024;2023-07-16T06:36:45;21.90;51.68
72128;DHT22;60000;51.030;7.024;2023-07-16T06:39:11;21.86;51.80
72128;DHT22;60000;51.030;7.024;2023-07-16T06:41:36;22.03;50.61
72128;DHT22;60000;51.030;7.024;2023-07-16T06:44:01;21.90;50.15
72128;DHT22;60000;51.030;7.024;2023-07-16T06:46:27;21.93;50.79
72128;DHT22;60000;51.030;7.024;2023-07-16T06:48:52;21.99;50.91
72128;DHT22;60000;51.030;7.024;2023-07-16T06:51:18;22.21;51.85
72128;DHT22;60000;51.030;7.024;2023-07-16T06:53:43;22.61;50.55
72128;DHT22;60000;51.030;7.024;2023-07-16T06:56:08;22.89;50.08
72128;DHT22;60000;51.030;7.024;2023-07-16T06:58:34;23.36;49.06
72128;DHT22;60000;51.030;7.024;2023-07-16T07:00:59;23.39;48.36
72128;DHT22;60000;51.030;7.024;2023-07-16T07:03:25;23.42;47.52
72128;DHT22;60000;51.030;7.024;2023-07-16T07:05:50;23.40;47.31
72128;DHT22;60000;51.030;7.024;2023-07-16T07:08:16;23.47;46.41
72128;DHT22;60000;51.030;7.024;2023-07-16T07:10:41;23.64;45.66
72128;DHT22;60000;51.030;7.024;2023-07-16T07:13:06;23.75;45.32
72128;DHT22;60000;51.030;7.024;2023-07-16T07:15:32;23.98;44.91
72128;DHT22;60000;51.030;7.024;2023-07-16T07:17:57;23.87;43.68
72128;DHT22;60000;51.030;7.024;2023-07-16T07:20:22;23.61;44.67
72128;DHT22;60000;51.030;7.024;2023-07-16T07:22:48;23.37;44.01
72128;DHT22;60000;51.030;7.024;2023-07-16T07:25:13;23.24;44.57
72128;DHT22;60000;51.030;7.024;2023-07-16T07:27:38;23.36;45.04
72128;DHT22;60000;51.030;7.024;2023-07-16T07:30:04;23.78;45.30
72128;DHT22;60000;51.030;7.024;2023-07-16T07:32:30;23.47;44.02
72128;DHT22;60000;51.030;7.024;2023-07-16T07:34:55;23.51;44.30
72128;DHT22;60000;51.030;7.024;2023-07-16T07:37:20;23.61;44.78
72128;DHT22;60000;51.030;7.024;2023-07-16T07:39:51;23.81;43.99
72128;DHT22;60000;51.030;7.024;2023-07-16T07:42:16;24.07;43.31
72128;DHT22;60000;51.030;7.024;2023-07-16T07:44:42;24.05;42.98
72128;DHT22;60000;51.030;7.024;2023-07-16T07:47:07;24.18;42.00
72128;DHT22;60000;51.030;7.024;2023-07-16T07:49:33;24.24;41.90
72128;DHT22;60000;51.030;7.024;2023-07-16T07:51:59;24.49;43.57
72128;DHT22;60000;51.030;7.024;2023-07-16T07:54:25;24.76;42.10
72128;DHT22;60000;51.030;7.024;2023-07-16T07:56:50;24.87;41.71
72128;DHT22;60000;51.030;7.024;2023-07-16T07:59:15;24.86;41.40
72128;DHT22;60000;51.030;7.024;2023-07-16T08:01:41;25.03;42.01
72128;DHT22;60000;51.030;7.024;2023-07-16T08:04:06;25.20;42.00
72128;DHT22;60000;51.030;7.024;2023-07-16T08:06:32;25.21;41.91
72128;DHT22;60000;51.030;7.024;2023-07-16T08:08:57;25.27;41.31
72128;DHT22;60000;51.030;7.024;2023-07-16T08:11:22;25.42;41.66
72128;DHT22;60000;51.030;7.024;2023-07-16T08:13:49;25.65;38.89
72128;DHT22;60000;51.030;7.024;2023-07-16T08:16:14;25.55;38.51
72128;DHT22;60000;51.030;7.024;2023-07-16T08:18:40;25.54;38.36
72128;DHT22;60000;51.030;7.024;2023-07-16T08:21:05;25.25;38.22
72128;DHT22;60000;51.030;7.024;2023-07-16T08:23:30;25.25;39.68
72128;DHT22;60000;51.030;7.024;2023-07-16T08:25:56;25.49;38.99
72128;DHT22;60000;51.030;7.024;2023-07-16T08:28:21;25.79;38.56
72128;DHT22;60000;51.030;7.024;2023-07-16T08:30:47;25.69;37.49
72128;DHT22;60000;51.030;7.024;2023-07-16T08:33:13;25.30;37.27
72128;DHT22;60000;51.030;7.024;2023-07-16T08:35:39;25.08;38.48
72128;DHT22;60000;51.030;7.024;2023-07-16T08:38:05;25.17;39.55
72128;DHT22;60000;51.030;7.024;2023-07-16T08:40:35;25.45;38.97
72128;DHT22;60000;51.030;7.024;2023-07-16T08:43:01;25.93;37.92
72128;DHT22;60000;51.030;7.024;2023-07-16T08:45:28;25.94;37.84
72128;DHT22;60000;51.030;7.024;2023-07-16T08:47:54;26.10;37.93
72128;DHT22;60000;51.030;7.024;2023-07-16T08:50:21;26.13;35.96
72128;DHT22;60000;51.030;7.024;2023-07-16T08:52:47;26.20;36.53
72128;DHT22;60000;51.030;7.024;2023-07-16T08:55:12;26.19;36.09
72128;DHT22;60000;51.030;7.024;2023-07-16T08:57:39;26.16;36.09
72128;DHT22;60000;51.030;7.024;2023-07-16T09:00:06;26.23;36.37
72128;DHT22;60000;51.030;7.024;2023-07-16T09:02:32;26.07;36.10
72128;DHT22;60000;51.030;7.024;2023-07-16T09:04:58;25.79;35.65
72128;DHT22;60000;51.030;7.024;2023-07-16T09:07:23;25.71;36.60
72128;DHT22;60000;51.030;7.024;2023-07-16T09:09:59;25.51;36.57
72128;DHT22;60000;51.030;7.024;2023-07-16T09:12:25;25.86;37.58
72128;DHT22;60000;51.030;7.024;2023-07-16T09:14:51;25.78;36.24
72128;DHT22;60000;51.030;7.024;2023-07-16T09:17:22;25.25;36.43
72128;DHT22;60000;51.030;7.024;2023-07-16T09:19:49;25.42;37.22
72128;DHT22;60000;51.030;7.024;2023-07-16T09:22:17;25.27;37.50
72128;DHT22;60000;51.030;7.024;2023-07-16T09:24:45;25.35;37.41
72128;DHT22;60000;51.030;7.024;2023-07-16T09:27:11;25.34;37.39
72128;DHT22;60000;51.030;7.024;2023-07-16T09:29:38;25.59;37.57
72128;DHT22;60000;51.030;7.024;2023-07-16T09:32:04;25.42;36.45
72128;DHT22;60000;51.030;7.024;2023-07-16T09:34:31;25.59;37.78
72128;DHT22;60000;51.030;7.024;2023-07-16T09:36:57;25.82;37.01
72128;DHT22;60000;51.030;7.024;2023-07-16T09:39:23;25.55;37.59
72128;DHT22;60000;51.030;7.024;2023-07-16T09:41:50;25.81;37.75
72128;DHT22;60000;51.030;7.024;2023-07-16T09:44:16;25.97;37.01
72128;DHT22;60000;51.030;7.024;2023-07-16T09:46:42;26.12;36.80
72128;DHT22;60000;51.030;7.024;2023-07-16T09:49:08;26.40;36.96
72128;DHT22;60000;51.030;7.024;2023-07-16T09:51:39;26.61;35.87
72128;DHT22;60000;51.030;7.024;2023-07-16T09:54:05;26.78;35.49
72128;DHT22;60000;51.030;7.024;2023-07-16T09:56:36;26.82;36.31
72128;DHT22;60000;51.030;7.024;2023-07-16T09:59:07;27.19;36.19
72128;DHT22;60000;51.030;7.024;2023-07-16T10:01:37;27.40;35.57
72128;DHT22;60000;51.030;7.024;2023-07-16T10:04:16;27.26;34.98
72128;DHT22;60000;51.030;7.024;2023-07-16T10:06:57;27.12;34.67
72128;DHT22;60000;51.030;7.024;2023-07-16T10:14:44;26.81;35.94
72128;DHT22;60000;51.030;7.024;2023-07-16T10:17:14;26.81;35.88
72128;DHT22;60000;51.030;7.024;2023-07-16T10:22:18;26.67;36.13
72128;DHT22;60000;51.030;7.024;2023-07-16T10:24:51;26.74;36.91
72128;DHT22;60000;51.030;7.024;2023-07-16T10:27:29;26.61;36.99
72128;DHT22;60000;51.030;7.024;2023-07-16T10:29:55;26.98;37.70
72128;DHT22;60000;51.030;7.024;2023-07-16T10:32:20;27.02;37.09
72128;DHT22;60000;51.030;7.024;2023-07-16T10:34:46;27.18;36.66
72128;DHT22;60000;51.030;7.024;2023-07-16T10:37:11;27.28;36.00
72128;DHT22;60000;51.030;7.024;2023-07-16T10:39:46;26.96;36.48
72128;DHT22;60000;51.030;7.024;2023-07-16T10:42:12;26.78;36.17
72128;DHT22;60000;51.030;7.024;2023-07-16T10:44:39;26.34;36.38
72128;DHT22;60000;51.030;7.024;2023-07-16T10:47:05;26.32;37.01
72128;DHT22;60000;51.030;7.024;2023-07-16T10:49:30;26.17;36.69
72128;DHT22;60000;51.030;7.024;2023-07-16T10:51:59;26.23;36.86
72128;DHT22;60000;51.030;7.024;2023-07-16T10:54:25;26.16;36.56
72128;DHT22;60000;51.030;7.024;2023-07-16T10:56:51;26.10;36.82
72128;DHT22;60000;51.030;7.024;2023-07-16T10:59:17;25.82;36.39
72128;DHT22;60000;51.030;7.024;2023-07-16T11:01:43;25.68;38.14
72128;DHT22;60000;51.030;7.024;2023-07-16T11:04:09;25.55;37.63
72128;DHT22;60000;51.030;7.024;2023-07-16T11:06:34;25.38;37.74
72128;DHT22;60000;51.030;7.024;2023-07-16T11:09:11;25.51;37.73
72128;DHT22;60000;51.030;7.024;2023-07-16T11:11:36;25.51;38.35
72128;DHT22;60000;51.030;7.024;2023-07-16T11:14:05;25.78;38.26
72128;DHT22;60000;51.030;7.024;2023-07-16T11:16:35;25.86;37.41
72128;DHT22;60000;51.030;7.024;2023-07-16T11:19:03;25.75;37.96
72128;DHT22;60000;51.030;7.024;2023-07-16T11:21:29;25.88;38.11
72128;DHT22;60000;51.030;7.024;2023-07-16T11:23:54;25.85;37.03
72128;DHT22;60000;51.030;7.024;2023-07-16T11:26:20;26.39;38.11
72128;DHT22;60000;51.030;7.024;2023-07-16T11:28:45;26.36;36.43
72128;DHT22;60000;51.030;7.024;2023-07-16T11:31:14;26.29;36.61
72128;DHT22;60000;51.030;7.024;2023-07-16T11:33:42;26.29;36.49
72128;DHT22;60000;51.030;7.024;2023-07-16T11:36:08;26.20;36.83
72128;DHT22;60000;51.030;7.024;2023-07-16T11:38:36;26.04;36.60
72128;DHT22;60000;51.030;7.024;2023-07-16T11:41:02;26.13;37.15
72128;DHT22;60000;51.030;7.024;2023-07-16T11:43:27;26.26;37.10
72128;DHT22;60000;51.030;7.024;2023-07-16T11:45:52;26.80;36.63
72128;DHT22;60000;51.030;7.024;2023-07-16T11:48:18;26.74;35.92
72128;DHT22;60000;51.030;7.024;2023-07-16T11:50:43;26.78;36.03
72128;DHT22;60000;51.030;7.024;2023-07-16T11:53:10;26.92;36.30
72128;DHT22;60000;51.030;7.024;2023-07-16T11:55:35;26.84;36.17
72128;DHT22;60000;51.030;7.024;2023-07-16T11:58:01;27.02;36.50
72128;DHT22;60000;51.030;7.024;2023-07-16T12:00:28;26.75;35.82
72128;DHT22;60000;51.030;7.024;2023-07-16T12:02:53;26.82;36.02
72128;DHT22;60000;51.030;7.024;2023-07-16T12:05:20;26.91;36.00
72128;DHT22;60000;51.030;7.024;2023-07-16T12:07:45;26.68;35.76
72128;DHT22;60000;51.030;7.024;2023-07-16T12:10:11;26.91;36.70
72128;DHT22;60000;51.030;7.024;2023-07-16T12:12:36;27.08;36.18
72128;DHT22;60000;51.030;7.024;2023-07-16T12:15:04;27.06;35.15
72128;DHT22;60000;51.030;7.024;2023-07-16T12:17:29;26.99;34.73
72128;DHT22;60000;51.030;7.024;2023-07-16T12:19:55;26.85;35.14
72128;DHT22;60000;51.030;7.024;2023-07-16T12:22:20;26.62;35.66
72128;DHT22;60000;51.030;7.024;2023-07-16T12:24:46;26.37;35.90
72128;DHT22;60000;51.030;7.024;2023-07-16T12:27:11;26.16;36.53
72128;DHT22;60000;51.030;7.024;2023-07-16T12:29:37;26.22;36.75
72128;DHT22;60000;51.030;7.024;2023-07-16T12:32:02;26.45;35.49
72128;DHT22;60000;51.030;7.024;2023-07-16T12:34:28;26.68;35.83
72128;DHT22;60000;51.030;7.024;2023-07-16T12:36:53;26.82;35.15
72128;DHT22;60000;51.030;7.024;2023-07-16T12:39:20;26.72;35.41
72128;DHT22;60000;51.030;7.024;2023-07-16T12:41:45;26.74;35.15
72128;DHT22;60000;51.030;7.024;2023-07-16T12:44:11;26.78;35.34
72128;DHT22;60000;51.030;7.024;2023-07-16T12:46:38;27.01;35.09
72128;DHT22;60000;51.030;7.024;2023-07-16T12:49:03;26.80;35.27
72128;DHT22;60000;51.030;7.024;2023-07-16T12:51:30;26.51;35.29
72128;DHT22;60000;51.030;7.024;2023-07-16T12:53:55;26.37;35.83
72128;DHT22;60000;51.030;7.024;2023-07-16T12:56:21;26.27;36.21
72128;DHT22;60000;51.030;7.024;2023-07-16T12:58:47;26.24;36.00
72128;DHT22;60000;51.030;7.024;2023-07-16T13:01:13;26.29;36.38
72128;DHT22;60000;51.030;7.024;2023-07-16T13:03:38;26.45;36.45
72128;DHT22;60000;51.030;7.024;2023-07-16T13:06:04;26.84;36.61
72128;DHT22;60000;51.030;7.024;2023-07-16T13:08:29;26.91;34.96
72128;DHT22;60000;51.030;7.024;2023-07-16T13:10:55;26.94;36.07
72128;DHT22;60000;51.030;7.024;2023-07-16T13:13:20;27.08;35.65
72128;DHT22;60000;51.030;7.024;2023-07-16T13:15:46;27.15;35.78
72128;DHT22;60000;51.030;7.024;2023-07-16T13:18:11;26.99;35.14
72128;DHT22;60000;51.030;7.024;2023-07-16T13:20:37;26.96;35.49
72128;DHT22;60000;51.030;7.024;2023-07-16T13:23:02;26.98;36.78
72128;DHT22;60000;51.030;7.024;2023-07-16T13:25:29;26.82;35.48
72128;DHT22;60000;51.030;7.024;2023-07-16T13:27:57;26.61;35.21
72128;DHT22;60000;51.030;7.024;2023-07-16T13:30:23;26.53;35.86
72128;DHT22;60000;51.030;7.024;2023-07-16T13:32:48;26.64;35.80
72128;DHT22;60000;51.030;7.024;2023-07-16T13:35:15;26.70;35.57
72128;DHT22;60000;51.030;7.024;2023-07-16T13:37:41;26.51;35.29
72128;DHT22;60000;51.030;7.024;2023-07-16T13:40:07;26.41;35.77
72128;DHT22;60000;51.030;7.024;2023-07-16T13:42:32;26.33;35.76
72128;DHT22;60000;51.030;7.024;2023-07-16T13:44:57;26.29;35.96
72128;DHT22;60000;51.030;7.024;2023-07-16T13:47:23;26.22;36.53
72128;DHT22;60000;51.030;7.024;2023-07-16T13:49:48;26.02;36.31
72128;DHT22;60000;51.030;7.024;2023-07-16T13:52:13;25.86;36.63
72128;DHT22;60000;51.030;7.024;2023-07-16T13:54:39;25.85;37.53
72128;DHT22;60000;51.030;7.024;2023-07-16T13:57:04;25.88;37.18
72128;DHT22;60000;51.030;7.024;2023-07-16T13:59:30;26.09;37.27
72128;DHT22;60000;51.030;7.024;2023-07-16T14:02:02;26.22;36.56
72128;DHT22;60000;51.030;7.024;2023-07-16T14:04:28;26.09;36.17
72128;DHT22;60000;51.030;7.024;2023-07-16T14:06:54;25.96;36.02
72128;DHT22;60000;51.030;7.024;2023-07-16T14:09:20;25.92;36.89
72128;DHT22;60000;51.030;7.024;2023-07-16T14:11:46;25.92;37.11
72128;DHT22;60000;51.030;7.024;2023-07-16T14:14:16;26.09;36.84
72128;DHT22;60000;51.030;7.024;2023-07-16T14:16:42;26.13;36.35
72128;DHT22;60000;51.030;7.024;2023-07-16T14:19:08;26.04;35.86
72128;DHT22;60000;51.030;7.024;2023-07-16T14:21:34;25.92;35.58
72128;DHT22;60000;51.030;7.024;2023-07-16T14:23:59;25.79;36.08
72128;DHT22;60000;51.030;7.024;2023-07-16T14:26:24;25.64;36.46
72128;DHT22;60000;51.030;7.024;2023-07-16T14:28:50;25.64;36.44
72128;DHT22;60000;51.030;7.024;2023-07-16T14:31:15;25.71;36.75
72128;DHT22;60000;51.030;7.024;2023-07-16T14:33:40;25.82;36.75
72128;DHT22;60000;51.030;7.024;2023-07-16T14:36:06;25.90;36.57
72128;DHT22;60000;51.030;7.024;2023-07-16T14:38:31;26.06;37.06
72128;DHT22;60000;51.030;7.024;2023-07-16T14:40:56;26.07;36.04
72128;DHT22;60000;51.030;7.024;2023-07-16T14:43:22;26.14;36.52
72128;DHT22;60000;51.030;7.024;2023-07-16T14:45:47;26.02;36.07
72128;DHT22;60000;51.030;7.024;2023-07-16T14:48:12;25.85;35.55
72128;DHT22;60000;51.030;7.024;2023-07-16T14:50:38;25.82;36.12
72128;DHT22;60000;51.030;7.024;2023-07-16T14:53:05;25.79;35.78
72128;DHT22;60000;51.030;7.024;2023-07-16T14:55:30;25.86;36.17
72128;DHT22;60000;51.030;7.024;2023-07-16T14:57:56;25.81;36.13
72128;DHT22;60000;51.030;7.024;2023-07-16T15:00:21;25.81;36.23
72128;DHT22;60000;51.030;7.024;2023-07-16T15:02:46;25.81;36.12
72128;DHT22;60000;51.030;7.024;2023-07-16T15:05:12;25.85;36.58
72128;DHT22;60000;51.030;7.024;2023-07-16T15:07:37;25.89;37.00
72128;DHT22;60000;51.030;7.024;2023-07-16T15:10:04;25.92;36.71
72128;DHT22;60000;51.030;7.024;2023-07-16T15:12:30;25.85;36.60
72128;DHT22;60000;51.030;7.024;2023-07-16T15:14:55;25.82;36.30
72128;DHT22;60000;51.030;7.024;2023-07-16T15:17:20;25.73;36.66
72128;DHT22;60000;51.030;7.024;2023-07-16T15:19:48;25.76;36.87
72128;DHT22;60000;51.030;7.024;2023-07-16T15:22:13;25.73;36.68
72128;DHT22;60000;51.030;7.024;2023-07-16T15:24:41;25.76;37.01
72128;DHT22;60000;51.030;7.024;2023-07-16T15:27:07;25.81;37.07
72128;DHT22;60000;51.030;7.024;2023-07-16T15:29:32;25.76;36.31
72128;DHT22;60000;51.030;7.024;2023-07-16T15:31:57;25.88;36.73
72128;DHT22;60000;51.030;7.024;2023-07-16T15:34:23;25.97;36.84